createdAt,value
2018-09-03T00:01:15.958Z,101409.00
2018-09-03T00:03:44.804Z,101402.00
2018-09-03T00:06:13.963Z,101402.00
2018-09-03T00:08:42.847Z,101406.00
2018-09-03T00:11:11.650Z,101395.00
2018-09-03T00:13:40.545Z,101388.00
2018-09-03T00:16:09.368Z,101400.00
2018-09-03T00:18:38.198Z,101397.00
2018-09-03T00:21:07.015Z,101386.00
2018-09-03T00:23:35.894Z,101397.00
2018-09-03T00:26:04.790Z,101390.00
2018-09-03T00:28:33.658Z,101393.00
2018-09-03T00:31:07.995Z,101387.00
2018-09-03T00:33:42.192Z,101387.00
2018-09-03T00:37:15.186Z,101387.00
2018-09-03T00:39:49.442Z,101375.00
2018-09-03T00:42:23.641Z,101383.00
2018-09-03T00:44:57.815Z,101382.00
2018-09-03T00:47:26.611Z,101379.00
2018-09-03T00:49:55.463Z,101381.00
2018-09-03T00:52:24.296Z,101383.00
2018-09-03T00:54:53.140Z,101390.00
2018-09-03T00:57:21.938Z,101381.00
2018-09-03T00:59:50.842Z,101381.00
2018-09-03T01:02:19.716Z,101387.00
2018-09-03T01:04:48.528Z,101379.00
2018-09-03T01:07:17.413Z,101381.00
2018-09-03T01:09:46.289Z,101384.00
2018-09-03T01:12:15.198Z,101386.00
2018-09-03T01:14:44.060Z,101386.00
2018-09-03T01:17:12.968Z,101391.00
2018-09-03T01:19:41.804Z,101384.00
2018-09-03T01:22:10.639Z,101394.00
2018-09-03T01:24:39.465Z,101394.00
2018-09-03T01:27:08.271Z,101391.00
2018-09-03T01:29:37.188Z,101391.00
2018-09-03T01:32:06.020Z,101397.00
2018-09-03T01:34:34.877Z,101398.00
2018-09-03T01:37:03.749Z,101400.00
2018-09-03T01:39:32.599Z,101407.00
2018-09-03T01:42:01.442Z,101410.00
2018-09-03T01:44:30.247Z,101411.00
2018-09-03T01:46:59.118Z,101409.00
2018-09-03T01:49:27.959Z,101407.00
2018-09-03T01:51:56.808Z,101402.00
2018-09-03T01:54:25.660Z,101404.00
2018-09-03T01:56:54.634Z,101401.00
2018-09-03T01:59:23.445Z,101394.00
2018-09-03T02:01:52.324Z,101401.00
2018-09-03T02:04:21.203Z,101400.00
2018-09-03T02:06:50.040Z,101398.00
2018-09-03T02:09:18.895Z,101401.00
2018-09-03T02:11:47.707Z,101405.00
2018-09-03T02:14:16.535Z,101403.00
2018-09-03T02:16:45.398Z,101404.00
2018-09-03T02:19:14.307Z,101393.00
2018-09-03T02:21:43.164Z,101399.00
2018-09-03T02:24:12.012Z,101394.00
2018-09-03T02:26:40.900Z,101390.00
2018-09-03T02:29:09.726Z,101395.00
2018-09-03T02:31:38.605Z,101392.00
2018-09-03T02:34:07.444Z,101402.00
2018-09-03T02:36:36.296Z,101400.00
2018-09-03T02:39:07.029Z,101395.00
2018-09-03T02:41:35.863Z,101392.00
2018-09-03T02:44:04.735Z,101393.00
2018-09-03T02:46:33.648Z,101385.00
2018-09-03T02:49:02.474Z,101375.00
2018-09-03T02:51:31.299Z,101380.00
2018-09-03T02:54:00.164Z,101376.00
2018-09-03T02:56:28.977Z,101371.00
2018-09-03T02:58:57.840Z,101366.00
2018-09-03T03:01:26.667Z,101365.00
2018-09-03T03:03:55.537Z,101360.00
2018-09-03T03:06:24.385Z,101362.00
2018-09-03T03:08:53.236Z,101362.00
2018-09-03T03:11:22.062Z,101355.00
2018-09-03T03:13:50.879Z,101352.00
2018-09-03T03:16:19.713Z,101360.00
2018-09-03T03:18:48.583Z,101363.00
2018-09-03T03:21:17.411Z,101357.00
2018-09-03T03:23:46.260Z,101352.00
2018-09-03T03:26:15.104Z,101346.00
2018-09-03T03:28:44.010Z,101347.00
2018-09-03T03:31:12.868Z,101351.00
2018-09-03T03:33:41.728Z,101345.00
2018-09-03T03:36:10.523Z,101348.00
2018-09-03T03:38:39.433Z,101345.00
2018-09-03T03:41:08.302Z,101346.00
2018-09-03T03:43:37.102Z,101342.00
2018-09-03T03:46:05.977Z,101350.00
2018-09-03T03:48:34.874Z,101346.00
2018-09-03T03:51:03.688Z,101336.00
2018-09-03T03:53:32.534Z,101340.00
2018-09-03T03:56:01.373Z,101334.00
2018-09-03T03:58:30.286Z,101333.00
2018-09-03T04:00:59.120Z,101335.00
2018-09-03T04:03:27.992Z,101331.00
2018-09-03T04:05:56.783Z,101326.00
2018-09-03T04:08:25.612Z,101324.00
2018-09-03T04:10:54.490Z,101320.00
2018-09-03T04:13:23.323Z,101323.00
2018-09-03T04:15:52.179Z,101324.00
2018-09-03T04:18:21.024Z,101330.00
2018-09-03T04:20:49.868Z,101325.00
2018-09-03T04:23:18.999Z,101326.00
2018-09-03T04:25:47.670Z,101328.00
2018-09-03T04:28:16.520Z,101322.00
2018-09-03T04:30:45.375Z,101325.00
2018-09-03T04:33:14.220Z,101329.00
2018-09-03T04:35:43.056Z,101332.00
2018-09-03T04:38:11.927Z,101332.00
2018-09-03T04:40:40.794Z,101325.00
2018-09-03T04:43:09.648Z,101325.00
2018-09-03T04:45:38.512Z,101332.00
2018-09-03T04:48:07.451Z,101331.00
2018-09-03T04:50:36.253Z,101335.00
2018-09-03T04:53:05.228Z,101340.00
2018-09-03T04:55:34.082Z,101346.00
2018-09-03T04:58:02.933Z,101345.00
2018-09-03T05:00:31.808Z,101346.00
2018-09-03T05:03:00.676Z,101349.00
2018-09-03T05:05:29.500Z,101347.00
2018-09-03T05:07:58.298Z,101344.00
2018-09-03T05:10:27.794Z,101339.00
2018-09-03T05:12:56.915Z,101333.00
2018-09-03T05:15:25.731Z,101345.00
2018-09-03T05:17:54.564Z,101344.00
2018-09-03T05:20:23.384Z,101340.00
2018-09-03T05:22:52.221Z,101345.00
2018-09-03T05:25:21.081Z,101344.00
2018-09-03T05:27:49.920Z,101344.00
2018-09-03T05:30:18.783Z,101345.00
2018-09-03T05:32:47.631Z,101347.00
2018-09-03T05:35:16.470Z,101349.00
2018-09-03T05:37:45.246Z,101345.00
2018-09-03T05:40:14.053Z,101349.00
2018-09-03T05:42:42.909Z,101347.00
2018-09-03T05:45:11.698Z,101356.00
2018-09-03T05:47:40.527Z,101349.00
2018-09-03T05:50:09.407Z,101352.00
2018-09-03T05:52:38.293Z,101348.00
2018-09-03T05:55:07.121Z,101349.00
2018-09-03T05:57:35.937Z,101348.00
2018-09-03T06:00:05.268Z,101355.00
2018-09-03T06:02:34.119Z,101357.00
2018-09-03T06:05:02.988Z,101360.00
2018-09-03T06:07:31.840Z,101363.00
2018-09-03T06:10:00.667Z,101360.00
2018-09-03T06:12:29.557Z,101361.00
2018-09-03T06:14:58.399Z,101372.00
2018-09-03T06:17:27.277Z,101362.00
2018-09-03T06:19:56.144Z,101362.00
2018-09-03T06:22:24.943Z,101359.00
2018-09-03T06:24:53.875Z,101368.00
2018-09-03T06:27:22.733Z,101362.00
2018-09-03T06:29:51.597Z,101366.00
2018-09-03T06:32:20.431Z,101361.00
2018-09-03T06:34:49.242Z,101366.00
2018-09-03T06:37:18.111Z,101359.00
2018-09-03T06:39:46.964Z,101352.00
2018-09-03T06:42:15.806Z,101356.00
2018-09-03T06:44:44.652Z,101343.00
2018-09-03T06:47:13.687Z,101348.00
2018-09-03T06:49:42.519Z,101357.00
2018-09-03T06:52:11.400Z,101344.00
2018-09-03T06:54:40.301Z,101344.00
2018-09-03T06:57:09.168Z,101350.00
2018-09-03T06:59:38.067Z,101349.00
2018-09-03T07:02:07.934Z,101346.00
2018-09-03T07:04:37.090Z,101345.00
2018-09-03T07:07:06.702Z,101335.00
2018-09-03T07:09:35.566Z,101342.00
2018-09-03T07:12:04.646Z,101341.00
2018-09-03T07:14:33.475Z,101334.00
2018-09-03T07:17:02.363Z,101340.00
2018-09-03T07:19:31.251Z,101352.00
2018-09-03T07:22:00.161Z,101341.00
2018-09-03T07:24:29.000Z,101338.00
2018-09-03T07:26:57.806Z,101344.00
2018-09-03T07:29:26.615Z,101340.00
2018-09-03T07:31:55.476Z,101339.00
2018-09-03T07:34:24.328Z,101339.00
2018-09-03T07:36:53.252Z,101340.00
2018-09-03T07:39:22.096Z,101332.00
2018-09-03T07:41:50.931Z,101335.00
2018-09-03T07:44:19.747Z,101336.00
2018-09-03T07:46:48.629Z,101337.00
2018-09-03T07:49:17.581Z,101342.00
2018-09-03T07:51:46.493Z,101339.00
2018-09-03T07:54:15.366Z,101338.00
2018-09-03T07:56:44.232Z,101341.00
2018-09-03T07:59:13.112Z,101342.00
2018-09-03T08:01:42.020Z,101336.00
2018-09-03T08:04:10.955Z,101334.00
2018-09-03T08:06:39.782Z,101336.00
2018-09-03T08:09:10.415Z,101339.00
2018-09-03T08:11:39.378Z,101334.00
2018-09-03T08:14:08.087Z,101328.00
2018-09-03T08:16:36.878Z,101323.00
2018-09-03T08:22:03.482Z,101323.00
2018-09-03T08:24:32.336Z,101317.00
2018-09-03T08:27:01.247Z,101315.00
2018-09-03T08:29:30.114Z,101321.00
2018-09-03T08:31:58.963Z,101315.00
2018-09-03T08:34:27.762Z,101310.00
2018-09-03T08:36:56.596Z,101313.00
2018-09-03T08:39:25.407Z,101321.00
2018-09-03T08:41:54.257Z,101316.00
2018-09-03T08:44:23.095Z,101307.00
2018-09-03T08:46:51.964Z,101304.00
2018-09-03T08:49:20.818Z,101303.00
2018-09-03T08:51:49.706Z,101300.00
2018-09-03T08:54:18.596Z,101304.00
2018-09-03T08:56:47.487Z,101298.00
2018-09-03T08:59:16.262Z,101299.00
2018-09-03T09:01:45.095Z,101294.00
2018-09-03T09:04:13.916Z,101292.00
2018-09-03T09:06:42.781Z,101295.00
2018-09-03T09:09:11.650Z,101293.00
2018-09-03T09:11:40.502Z,101292.00
2018-09-03T09:14:09.332Z,101285.00
2018-09-03T09:16:38.176Z,101289.00
2018-09-03T09:19:07.057Z,101282.00
2018-09-03T09:21:35.929Z,101291.00
2018-09-03T09:24:04.848Z,101281.00
2018-09-03T09:26:33.714Z,101276.00
2018-09-03T09:29:02.602Z,101279.00
2018-09-03T09:31:31.419Z,101275.00
2018-09-03T09:34:00.231Z,101269.00
2018-09-03T09:36:29.023Z,101267.00
2018-09-03T09:38:57.932Z,101271.00
2018-09-03T09:41:26.793Z,101263.00
2018-09-03T09:43:55.605Z,101266.00
2018-09-03T09:46:24.432Z,101255.00
2018-09-03T09:48:53.280Z,101257.00
2018-09-03T09:51:22.131Z,101257.00
2018-09-03T09:53:50.956Z,101253.00
2018-09-03T09:56:19.827Z,101251.00
2018-09-03T09:58:48.615Z,101257.00
2018-09-03T10:01:22.978Z,101245.00
2018-09-03T10:03:51.790Z,101247.00
2018-09-03T10:06:20.685Z,101250.00
2018-09-03T10:08:49.536Z,101244.00
2018-09-03T10:11:18.363Z,101244.00
2018-09-03T10:13:47.232Z,101237.00
2018-09-03T10:16:16.143Z,101240.00
2018-09-03T10:18:44.936Z,101240.00
2018-09-03T10:21:13.744Z,101229.00
2018-09-03T10:23:42.580Z,101232.00
2018-09-03T10:26:11.537Z,101239.00
2018-09-03T10:28:40.380Z,101224.00
2018-09-03T10:31:09.190Z,101225.00
2018-09-03T10:33:38.219Z,101230.00
2018-09-03T10:36:07.068Z,101237.00
2018-09-03T10:38:36.049Z,101228.00
2018-09-03T10:41:04.920Z,101229.00
2018-09-03T10:43:33.808Z,101227.00
2018-09-03T10:46:02.668Z,101222.00
2018-09-03T10:48:31.461Z,101217.00
2018-09-03T10:51:00.314Z,101217.00
2018-09-03T10:53:29.176Z,101214.00
2018-09-03T10:55:58.050Z,101207.00
2018-09-03T10:58:26.901Z,101208.00
2018-09-03T11:00:55.719Z,101211.00
2018-09-03T11:03:24.568Z,101204.00
2018-09-03T11:05:53.418Z,101199.00
2018-09-03T11:08:22.289Z,101199.00
2018-09-03T11:10:50.982Z,101202.00
2018-09-03T11:13:19.847Z,101206.00
2018-09-03T11:15:48.675Z,101207.00
2018-09-03T11:18:17.561Z,101209.00
2018-09-03T11:20:46.442Z,101204.00
2018-09-03T11:23:15.276Z,101194.00
2018-09-03T11:25:44.071Z,101206.00
2018-09-03T11:28:12.917Z,101200.00
2018-09-03T11:30:41.820Z,101185.00
2018-09-03T11:33:10.742Z,101185.00
2018-09-03T11:35:39.563Z,101190.00
2018-09-03T11:38:08.408Z,101189.00
2018-09-03T11:40:37.269Z,101188.00
2018-09-03T11:43:06.303Z,101191.00
2018-09-03T11:45:35.097Z,101191.00
2018-09-03T11:48:03.924Z,101175.00
2018-09-03T11:50:32.751Z,101173.00
2018-09-03T11:53:01.575Z,101179.00
2018-09-03T11:55:30.469Z,101168.00
2018-09-03T11:57:59.277Z,101164.00
2018-09-03T12:00:29.735Z,101164.00
2018-09-03T12:02:59.111Z,101166.00
2018-09-03T12:05:28.829Z,101164.00
2018-09-03T12:07:57.683Z,101176.00
2018-09-03T12:10:26.536Z,101164.00
2018-09-03T12:12:55.437Z,101164.00
2018-09-03T12:15:31.558Z,101161.00
2018-09-03T12:18:00.433Z,101164.00
2018-09-03T12:20:29.246Z,101158.00
2018-09-03T12:22:58.106Z,101160.00
2018-09-03T12:25:26.927Z,101156.00
2018-09-03T12:27:58.364Z,101150.00
2018-09-03T12:30:27.382Z,101150.00
2018-09-03T12:32:56.253Z,101157.00
2018-09-03T12:35:25.172Z,101156.00
2018-09-03T12:37:54.031Z,101156.00
2018-09-03T12:40:22.928Z,101152.00
2018-09-03T12:42:51.836Z,101151.00
2018-09-03T12:45:24.795Z,101142.00
2018-09-03T12:47:53.653Z,101142.00
2018-09-03T12:50:22.680Z,101075.00
2018-09-03T12:52:51.491Z,101135.00
2018-09-03T12:55:20.361Z,101138.00
2018-09-03T12:57:49.219Z,101135.00
2018-09-03T13:00:21.607Z,101127.00
2018-09-03T13:02:50.896Z,101124.00
2018-09-03T13:05:20.403Z,101130.00
2018-09-03T13:07:49.661Z,101126.00
2018-09-03T13:10:18.490Z,101120.00
2018-09-03T13:12:47.462Z,101113.00
2018-09-03T13:15:16.419Z,101118.00
2018-09-03T13:17:45.243Z,101109.00
2018-09-03T13:20:14.333Z,101120.00
2018-09-03T13:22:44.667Z,101115.00
2018-09-03T13:25:13.505Z,101123.00
2018-09-03T13:27:43.882Z,101115.00
2018-09-03T13:30:12.711Z,101114.00
2018-09-03T13:32:41.606Z,101112.00
2018-09-03T13:35:11.453Z,101108.00
2018-09-03T13:37:40.316Z,101101.00
2018-09-03T13:40:09.252Z,101105.00
2018-09-03T13:42:39.789Z,101106.00
2018-09-03T13:45:08.789Z,101096.00
2018-09-03T13:47:37.628Z,101101.00
2018-09-03T13:50:06.875Z,101099.00
2018-09-03T13:52:35.820Z,101096.00
2018-09-03T13:55:04.955Z,101101.00
2018-09-03T13:57:34.524Z,101101.00
2018-09-03T14:00:03.421Z,101096.00
2018-09-03T14:02:32.543Z,101093.00
2018-09-03T14:05:01.417Z,101101.00
2018-09-03T14:07:30.268Z,101088.00
2018-09-03T14:09:59.228Z,101088.00
2018-09-03T14:12:28.007Z,101083.00
2018-09-03T14:17:53.974Z,101082.00
2018-09-03T14:23:19.711Z,101077.00
2018-09-03T14:25:48.645Z,101071.00
2018-09-03T14:28:17.598Z,101077.00
2018-09-03T14:30:46.481Z,101072.00
2018-09-03T14:33:15.375Z,101070.00
2018-09-03T14:35:44.264Z,101062.00
2018-09-03T14:38:13.110Z,101064.00
2018-09-03T14:40:41.972Z,101069.00
2018-09-03T14:43:10.890Z,101065.00
2018-09-03T14:45:39.720Z,101065.00
2018-09-03T14:48:08.581Z,101065.00
2018-09-03T14:50:37.408Z,101064.00
2018-09-03T14:53:06.207Z,101064.00
2018-09-03T14:55:35.080Z,101062.00
2018-09-03T14:58:03.924Z,101065.00
2018-09-03T15:00:32.870Z,101063.00
2018-09-03T15:03:01.700Z,101067.00
2018-09-03T15:05:30.784Z,101072.00
2018-09-03T15:07:59.623Z,101066.00
2018-09-03T15:10:28.514Z,101062.00
2018-09-03T15:12:57.313Z,101060.00
2018-09-03T15:15:32.489Z,101058.00
2018-09-03T15:18:01.333Z,101071.00
2018-09-03T15:20:30.179Z,101060.00
2018-09-03T15:22:59.147Z,101057.00
2018-09-03T15:25:30.845Z,101062.00
2018-09-03T15:27:59.696Z,101065.00
2018-09-03T15:30:28.681Z,101065.00
2018-09-03T15:32:57.512Z,101060.00
2018-09-03T15:35:26.429Z,101063.00
2018-09-03T15:37:55.264Z,101059.00
2018-09-03T15:40:24.180Z,101062.00
2018-09-03T15:42:53.194Z,101052.00
2018-09-03T15:45:22.007Z,101058.00
2018-09-03T15:47:50.897Z,101059.00
2018-09-03T15:53:17.352Z,101063.00
2018-09-03T15:55:46.259Z,101058.00
2018-09-03T15:58:15.126Z,101049.00
2018-09-03T16:00:44.026Z,101060.00
2018-09-03T16:03:12.905Z,101057.00
2018-09-03T16:05:41.716Z,101056.00
2018-09-03T16:08:10.558Z,101056.00
2018-09-03T16:10:39.356Z,101054.00
2018-09-03T16:13:08.168Z,101053.00
2018-09-03T16:15:37.050Z,101052.00
2018-09-03T16:18:07.313Z,101054.00
2018-09-03T16:20:36.193Z,101052.00
2018-09-03T16:23:05.018Z,101054.00
2018-09-03T16:25:33.859Z,101046.00
2018-09-03T16:28:02.984Z,101052.00
2018-09-03T16:30:31.963Z,101044.00
2018-09-03T16:33:00.811Z,101047.00
2018-09-03T16:35:29.621Z,101050.00
2018-09-03T16:37:58.476Z,101050.00
2018-09-03T16:40:27.327Z,101047.00
2018-09-03T16:42:56.213Z,101046.00
2018-09-03T16:45:25.063Z,101052.00
2018-09-03T16:47:53.890Z,101049.00
2018-09-03T16:50:22.739Z,101041.00
2018-09-03T16:52:51.641Z,101044.00
2018-09-03T16:55:20.732Z,101042.00
2018-09-03T16:57:50.312Z,101036.00
2018-09-03T17:00:19.122Z,101042.00
2018-09-03T17:02:48.021Z,101034.00
2018-09-03T17:05:19.713Z,101041.00
2018-09-03T17:10:23.056Z,101044.00
2018-09-03T17:12:53.520Z,101042.00
2018-09-03T17:15:22.359Z,101035.00
2018-09-03T17:17:51.261Z,101034.00
2018-09-03T17:20:20.098Z,101034.00
2018-09-03T17:22:48.932Z,101036.00
2018-09-03T17:25:17.780Z,101036.00
2018-09-03T17:27:46.705Z,101028.00
2018-09-03T17:30:15.589Z,101031.00
2018-09-03T17:32:46.395Z,101029.00
2018-09-03T17:35:15.297Z,101027.00
2018-09-03T17:37:44.163Z,101025.00
2018-09-03T17:40:13.036Z,101023.00
2018-09-03T17:42:41.926Z,101026.00
2018-09-03T17:45:10.816Z,101032.00
2018-09-03T17:47:40.287Z,101029.00
2018-09-03T17:50:09.549Z,101029.00
2018-09-03T17:52:38.444Z,101035.00
2018-09-03T17:55:08.785Z,101036.00
2018-09-03T17:57:37.635Z,101037.00
2018-09-03T18:00:06.641Z,101042.00
2018-09-03T18:02:35.454Z,101044.00
2018-09-03T18:05:04.299Z,101041.00
2018-09-03T18:07:33.155Z,101049.00
2018-09-03T18:10:02.005Z,101051.00
2018-09-03T18:12:30.877Z,101051.00
2018-09-03T18:14:59.736Z,101058.00
2018-09-03T18:17:28.597Z,101061.00
2018-09-03T18:19:57.488Z,101056.00
2018-09-03T18:22:26.335Z,101068.00
2018-09-03T18:24:55.214Z,101065.00
2018-09-03T18:27:24.035Z,101076.00
2018-09-03T18:29:52.907Z,101072.00
2018-09-03T18:32:21.761Z,101075.00
2018-09-03T18:34:50.586Z,101071.00
2018-09-03T18:37:19.476Z,101076.00
2018-09-03T18:39:48.570Z,101074.00
2018-09-03T18:42:17.439Z,101070.00
2018-09-03T18:44:46.276Z,101073.00
2018-09-03T18:47:15.251Z,101056.00
2018-09-03T18:49:44.046Z,101067.00
2018-09-03T18:52:12.899Z,101062.00
2018-09-03T18:54:41.739Z,101061.00
2018-09-03T18:57:10.673Z,101061.00
2018-09-03T18:59:39.486Z,101072.00
2018-09-03T19:02:08.332Z,101070.00
2018-09-03T19:04:37.191Z,101069.00
2018-09-03T19:07:06.039Z,101072.00
2018-09-03T19:09:34.913Z,101072.00
2018-09-03T19:12:03.731Z,101071.00
2018-09-03T19:14:32.630Z,101075.00
2018-09-03T19:17:01.445Z,101073.00
2018-09-03T19:19:30.255Z,101069.00
2018-09-03T19:21:59.097Z,101075.00
2018-09-03T19:24:27.939Z,101077.00
2018-09-03T19:26:56.743Z,101077.00
2018-09-03T19:29:25.581Z,101072.00
2018-09-03T19:31:54.397Z,101071.00
2018-09-03T19:34:23.201Z,101076.00
2018-09-03T19:36:52.153Z,101065.00
2018-09-03T19:39:21.110Z,101068.00
2018-09-03T19:41:50.020Z,101071.00
2018-09-03T19:44:20.298Z,101061.00
2018-09-03T19:46:49.285Z,101066.00
2018-09-03T19:49:18.132Z,101069.00
2018-09-03T19:51:46.979Z,101068.00
2018-09-03T19:54:15.812Z,101071.00
2018-09-03T19:56:44.683Z,101067.00
2018-09-03T19:59:13.636Z,101074.00
2018-09-03T20:01:42.561Z,101067.00
2018-09-03T20:04:11.436Z,101066.00
2018-09-03T20:06:40.296Z,101071.00
2018-09-03T20:09:09.321Z,101071.00
2018-09-03T20:11:38.569Z,101070.00
2018-09-03T20:14:07.781Z,101068.00
2018-09-03T20:16:36.951Z,101070.00
2018-09-03T20:19:05.948Z,101067.00
2018-09-03T20:21:34.822Z,101058.00
2018-09-03T20:24:03.638Z,101068.00
2018-09-03T20:26:32.479Z,101076.00
2018-09-03T20:29:01.317Z,101072.00
2018-09-03T20:31:30.151Z,101071.00
2018-09-03T20:33:59.025Z,101069.00
2018-09-03T20:36:27.936Z,101066.00
2018-09-03T20:38:56.739Z,101065.00
2018-09-03T20:41:25.607Z,101060.00
2018-09-03T20:43:54.436Z,101065.00
2018-09-03T20:46:23.371Z,101064.00
2018-09-03T20:48:52.152Z,101065.00
2018-09-03T20:51:20.992Z,101057.00
2018-09-03T20:53:49.858Z,101061.00
2018-09-03T20:56:18.759Z,101053.00
2018-09-03T20:58:47.608Z,101060.00
2018-09-03T21:01:16.463Z,101059.00
2018-09-03T21:03:45.293Z,101053.00
2018-09-03T21:06:14.137Z,101055.00
2018-09-03T21:08:42.961Z,101049.00
2018-09-03T21:11:11.815Z,101044.00
2018-09-03T21:13:40.623Z,101054.00
2018-09-03T21:16:09.492Z,101052.00
2018-09-03T21:18:38.526Z,101045.00
2018-09-03T21:21:07.385Z,101048.00
2018-09-03T21:23:36.194Z,101054.00
2018-09-03T21:26:05.136Z,101051.00
2018-09-03T21:28:34.008Z,101053.00
2018-09-03T21:31:02.872Z,101052.00
2018-09-03T21:33:31.747Z,101049.00
2018-09-03T21:36:00.579Z,101054.00
2018-09-03T21:38:29.476Z,101043.00
2018-09-03T21:40:58.360Z,101048.00
2018-09-03T21:43:27.291Z,101042.00
2018-09-03T21:45:56.139Z,101050.00
2018-09-03T21:48:25.025Z,101045.00
2018-09-03T21:50:54.015Z,101048.00
2018-09-03T21:53:22.886Z,101044.00
2018-09-03T21:55:51.739Z,101040.00
2018-09-03T21:58:20.603Z,101038.00
2018-09-03T22:00:49.501Z,101041.00
2018-09-03T22:03:18.347Z,101041.00
2018-09-03T22:05:47.259Z,101047.00
2018-09-03T22:08:16.074Z,101039.00
2018-09-03T22:10:44.975Z,101052.00
2018-09-03T22:13:13.819Z,101043.00
2018-09-03T22:15:42.728Z,101045.00
2018-09-03T22:18:11.915Z,101048.00
2018-09-03T22:20:40.719Z,101046.00
2018-09-03T22:23:09.596Z,101045.00
2018-09-03T22:25:38.460Z,101043.00
2018-09-03T22:28:07.299Z,101045.00
2018-09-03T22:30:36.155Z,101044.00
2018-09-03T22:33:04.955Z,101044.00
2018-09-03T22:35:33.800Z,101045.00
2018-09-03T22:38:02.602Z,101043.00
2018-09-03T22:40:31.429Z,101035.00
2018-09-03T22:43:00.294Z,101035.00
2018-09-03T22:45:29.143Z,101036.00
2018-09-03T22:47:58.004Z,101034.00
2018-09-03T22:50:26.859Z,101041.00
2018-09-03T22:52:55.655Z,101037.00
2018-09-03T22:55:24.463Z,101028.00
2018-09-03T22:57:53.377Z,101034.00
2018-09-03T23:00:22.223Z,101038.00
2018-09-03T23:02:51.067Z,101028.00
2018-09-03T23:05:19.895Z,101042.00
2018-09-03T23:07:48.699Z,101043.00
2018-09-03T23:10:17.514Z,101035.00
2018-09-03T23:12:46.345Z,101035.00
2018-09-03T23:15:15.233Z,101037.00
2018-09-03T23:17:44.075Z,101035.00
2018-09-03T23:20:12.920Z,101038.00
2018-09-03T23:22:41.775Z,101035.00
2018-09-03T23:25:10.629Z,101028.00
2018-09-03T23:27:39.492Z,101033.00
2018-09-03T23:30:08.314Z,101034.00
2018-09-03T23:32:37.166Z,101029.00
2018-09-03T23:35:06.182Z,101021.00
2018-09-03T23:37:35.070Z,101022.00
2018-09-03T23:40:03.923Z,101022.00
2018-09-03T23:42:32.756Z,101025.00
2018-09-03T23:45:01.632Z,101024.00
2018-09-03T23:47:30.489Z,101025.00
2018-09-03T23:49:59.352Z,101014.00
2018-09-03T23:52:28.162Z,101021.00
2018-09-03T23:54:56.997Z,101018.00
2018-09-03T23:57:25.851Z,101016.00
2018-09-03T23:59:54.676Z,101014.00
